Time;durP1;ratioP1;P1;durP2;ratioP2;P2;SDS_P1;SDS_P2;PMS_P1;PMS_P2;Temp;Humidity;BMP_temperature;BMP_pressure;BME280_temperature;BME280_humidity;BME280_pressure;Samples;Min_cycle;Max_cycle;Signal;HPM_P1;HPM_P2
2021/05/21 00:00:49;;;;;;;1.85;0.63;;;;;;;19.60;46.79;100633.66;4762230;30;20044;-92
2021/05/21 00:03:16;;;;;;;1.95;0.82;;;;;;;19.61;46.59;100617.09;4760701;30;20078;-91
2021/05/21 00:05:44;;;;;;;1.20;0.63;;;;;;;19.61;46.61;100604.91;4776265;30;20063;-92
2021/05/21 00:08:10;;;;;;;1.13;0.70;;;;;;;19.60;46.59;100610.16;4758959;30;20031;-91
2021/05/21 00:10:36;;;;;;;1.80;0.57;;;;;;;19.62;46.41;100610.97;4773039;30;20047;-91
2021/05/21 00:13:02;;;;;;;1.60;0.70;;;;;;;19.60;46.77;100603.22;4772955;30;20134;-92
2021/05/21 00:15:27;;;;;;;2.22;0.60;;;;;;;19.59;46.64;100598.84;4773178;30;20024;-93
2021/05/21 00:17:52;;;;;;;2.13;0.80;;;;;;;19.60;46.63;100599.72;4773046;30;20024;-93
2021/05/21 00:20:18;;;;;;;2.00;0.80;;;;;;;19.58;46.71;100586.72;4758602;30;20040;-92
2021/05/21 00:22:43;;;;;;;2.10;0.85;;;;;;;19.59;46.64;100592.78;4758405;30;20042;-92
2021/05/21 00:25:09;;;;;;;2.72;0.70;;;;;;;19.59;46.77;100593.63;4773141;30;20122;-93
2021/05/21 00:27:35;;;;;;;1.77;0.65;;;;;;;19.60;46.91;100597.09;4772819;30;20120;-92
2021/05/21 00:30:00;;;;;;;2.83;0.80;;;;;;;19.60;46.71;100591.88;4772411;30;20024;-90
2021/05/21 00:32:26;;;;;;;1.48;0.70;;;;;;;19.60;46.63;100592.75;4772185;30;20056;-90
2021/05/21 00:34:54;;;;;;;2.13;0.77;;;;;;;19.60;46.59;100578.81;4773070;30;20038;-90
2021/05/21 00:37:19;;;;;;;2.33;0.75;;;;;;;19.60;46.69;100581.44;4773122;30;20514;-91
2021/05/21 00:39:45;;;;;;;2.33;0.68;;;;;;;19.60;46.83;100587.53;4757692;30;20048;-93
2021/05/21 00:42:10;;;;;;;2.25;0.60;;;;;;;19.59;46.76;100579.72;4772310;30;20450;-90
2021/05/21 00:44:36;;;;;;;1.75;0.75;;;;;;;19.60;46.82;100579.72;4757412;30;20031;-91
2021/05/21 00:47:01;;;;;;;2.55;0.85;;;;;;;19.58;46.91;100572.81;4757815;30;20395;-89
2021/05/21 00:49:27;;;;;;;2.15;0.63;;;;;;;19.57;46.76;100568.47;4773099;30;20085;-91
2021/05/21 00:51:52;;;;;;;2.83;0.80;;;;;;;19.57;46.99;100558.03;4772477;30;20032;-90
2021/05/21 00:54:19;;;;;;;1.98;0.70;;;;;;;19.55;46.77;100542.41;4772234;30;20035;-90
2021/05/21 00:56:45;;;;;;;2.90;0.88;;;;;;;19.56;46.75;100545.88;4772278;30;20377;-91
2021/05/21 00:59:10;;;;;;;1.58;0.80;;;;;;;19.58;46.86;100528.44;4772456;30;20035;-91
2021/05/21 01:01:37;;;;;;;2.30;0.70;;;;;;;19.55;46.73;100518.06;4772131;30;20039;-91
2021/05/21 01:04:03;;;;;;;3.58;0.98;;;;;;;19.55;46.89;100528.50;4772578;30;20046;-90
2021/05/21 01:06:29;;;;;;;2.72;0.80;;;;;;;19.53;46.95;100518.97;4771944;30;20395;-92
2021/05/21 01:08:55;;;;;;;2.33;0.70;;;;;;;19.53;46.90;100510.25;4773301;30;20102;-92
2021/05/21 01:11:21;;;;;;;2.40;0.65;;;;;;;19.53;47.02;100503.31;4771870;30;20028;-91
2021/05/21 01:13:46;;;;;;;2.15;0.82;;;;;;;19.55;46.98;100495.41;4771876;30;20035;-91
2021/05/21 01:16:12;;;;;;;1.75;0.93;;;;;;;19.55;47.03;100500.63;4757348;30;20036;-90
2021/05/21 01:18:38;;;;;;;2.10;0.85;;;;;;;19.53;46.82;100490.25;4773421;30;20040;-90
2021/05/21 01:21:04;;;;;;;1.65;0.70;;;;;;;19.54;46.88;100485.88;4786140;30;20028;-91
2021/05/21 01:23:30;;;;;;;2.03;0.80;;;;;;;19.52;47.09;100474.63;4782504;30;20039;-89
2021/05/21 01:25:56;;;;;;;3.85;0.80;;;;;;;19.54;46.95;100480.66;4759600;30;20023;-90
2021/05/21 01:28:24;;;;;;;3.83;0.90;;;;;;;19.53;46.89;100482.41;4774058;30;20028;-90
2021/05/21 01:30:51;;;;;;;2.28;0.88;;;;;;;19.50;46.92;100464.22;4774333;29;20475;-91
2021/05/21 01:33:17;;;;;;;2.30;0.73;;;;;;;19.51;46.83;100465.94;4810110;29;20070;-91
2021/05/21 01:35:43;;;;;;;3.13;0.90;;;;;;;19.53;46.96;100471.09;4792910;29;20053;-91
2021/05/21 01:38:12;;;;;;;2.45;0.93;;;;;;;19.54;46.85;100465.00;4793256;29;20035;-92
2021/05/21 01:40:39;;;;;;;2.10;0.70;;;;;;;19.51;47.04;100462.44;4793807;29;20557;-92
2021/05/21 01:43:04;;;;;;;2.88;0.80;;;;;;;19.51;46.90;100471.16;4778627;29;20129;-89
2021/05/21 01:45:30;;;;;;;1.50;0.65;;;;;;;19.51;47.02;100459.84;4793914;29;20050;-90
2021/05/21 01:47:57;;;;;;;1.27;0.60;;;;;;;19.52;47.19;100454.59;4794895;29;20510;-92
2021/05/21 01:50:22;;;;;;;2.45;0.90;;;;;;;19.49;47.00;100453.81;4798034;29;20031;-89
2021/05/21 01:52:48;;;;;;;2.30;0.75;;;;;;;19.49;46.95;100443.38;4798029;29;20044;-90
2021/05/21 01:55:14;;;;;;;1.73;0.75;;;;;;;19.50;46.99;100434.66;4797942;29;20390;-90
2021/05/21 01:57:40;;;;;;;1.95;0.68;;;;;;;19.48;47.27;100439.03;4798552;29;20050;-90
2021/05/21 02:00:08;;;;;;;2.72;0.93;;;;;;;19.49;47.15;100432.94;4797653;29;20046;-89
2021/05/21 02:02:33;;;;;;;2.08;0.85;;;;;;;19.47;47.21;100435.59;4799384;29;20487;-91
2021/05/21 02:04:59;;;;;;;2.53;0.90;;;;;;;19.48;47.03;100444.25;4798298;29;20031;-90
2021/05/21 02:07:25;;;;;;;2.13;0.75;;;;;;;19.48;47.03;100431.22;4782995;29;20035;-91
2021/05/21 02:09:59;;;;;;;2.10;1.00;;;;;;;19.46;47.21;100427.78;4796192;29;20027;-90
2021/05/21 02:12:26;;;;;;;2.33;1.02;;;;;;;19.48;47.11;100437.28;4794925;29;20050;-91
2021/05/21 02:14:53;;;;;;;3.55;0.95;;;;;;;19.47;47.17;100432.97;4792871;29;20510;-91
2021/05/21 02:17:19;;;;;;;2.88;0.85;;;;;;;19.48;47.01;100426.00;4793319;29;20023;-90
2021/05/21 02:19:44;;;;;;;2.90;1.00;;;;;;;19.47;47.16;100424.28;4792676;29;20046;-91
2021/05/21 02:22:11;;;;;;;3.22;1.00;;;;;;;19.47;47.08;100424.28;4809367;29;20034;-90
2021/05/21 02:24:37;;;;;;;2.20;1.00;;;;;;;19.46;47.22;100409.50;4794889;29;20062;-91
2021/05/21 02:27:03;;;;;;;2.83;0.90;;;;;;;19.47;46.85;100414.72;4793584;29;20070;-90
2021/05/21 02:29:28;;;;;;;2.92;1.00;;;;;;;19.45;47.30;100407.81;4792031;29;20467;-89
2021/05/21 02:31:54;;;;;;;2.83;0.93;;;;;;;19.45;47.24;100406.06;4784003;29;20495;-90
2021/05/21 02:34:19;;;;;;;2.33;0.82;;;;;;;19.43;47.10;100401.78;4770761;30;20119;-90
2021/05/21 02:36:44;;;;;;;2.50;0.90;;;;;;;19.44;47.15;100401.72;4770754;30;20099;-91
2021/05/21 02:39:10;;;;;;;4.05;1.15;;;;;;;19.44;47.03;100398.25;4770946;30;20059;-90
2021/05/21 02:41:36;;;;;;;3.17;0.95;;;;;;;19.43;47.04;100413.06;4770596;30;20036;-89
2021/05/21 02:44:02;;;;;;;2.60;1.00;;;;;;;19.43;47.40;100401.78;4770961;30;20044;-90
2021/05/21 02:46:27;;;;;;;3.25;0.98;;;;;;;19.41;47.12;100391.38;4770913;30;20064;-91
2021/05/21 02:48:52;;;;;;;3.95;1.23;;;;;;;19.43;47.25;100397.41;4770834;30;20024;-91
2021/05/21 02:51:18;;;;;;;2.35;0.88;;;;;;;19.41;47.08;100391.38;4771366;30;20036;-90
2021/05/21 02:53:43;;;;;;;4.22;1.00;;;;;;;19.42;47.34;100395.69;4770972;30;20408;-91
2021/05/21 02:56:09;;;;;;;3.50;1.20;;;;;;;19.41;47.02;100388.75;4770659;30;20032;-91
2021/05/21 02:58:34;;;;;;;3.17;1.15;;;;;;;19.40;47.14;100387.06;4755787;30;20056;-90
2021/05/21 03:01:00;;;;;;;3.47;1.13;;;;;;;19.42;47.02;100371.34;4770578;30;20024;-90
2021/05/21 03:03:25;;;;;;;2.60;0.75;;;;;;;19.39;47.29;100376.66;4770489;30;20027;-90
2021/05/21 03:05:51;;;;;;;3.88;1.20;;;;;;;19.39;47.19;100369.66;4770487;30;20476;-91
2021/05/21 03:08:16;;;;;;;4.13;1.30;;;;;;;19.39;47.16;100368.81;4771157;30;20039;-91
2021/05/21 03:10:41;;;;;;;4.00;1.10;;;;;;;19.40;47.49;100366.19;4770295;30;20024;-92
2021/05/21 03:13:07;;;;;;;3.08;1.00;;;;;;;19.41;47.33;100364.41;4769904;30;20032;-90
2021/05/21 03:15:33;;;;;;;2.58;0.90;;;;;;;19.40;47.11;100366.19;4755798;30;20032;-90
2021/05/21 03:18:02;;;;;;;3.55;1.15;;;;;;;19.38;47.30;100354.03;4770599;30;20031;-90
2021/05/21 03:20:28;;;;;;;2.88;1.05;;;;;;;19.39;47.28;100350.56;4756582;30;20564;-93
2021/05/21 03:22:53;;;;;;;3.05;1.17;;;;;;;19.39;47.18;100348.78;4755966;30;20131;-90
2021/05/21 03:25:19;;;;;;;2.55;0.98;;;;;;;19.40;47.36;100352.25;4770994;30;20126;-90
2021/05/21 03:27:44;;;;;;;3.30;1.20;;;;;;;19.40;47.19;100349.66;4771102;30;20506;-90
2021/05/21 03:30:11;;;;;;;4.38;1.30;;;;;;;19.37;47.45;100345.38;4770676;30;20031;-91
2021/05/21 03:32:36;;;;;;;3.50;1.13;;;;;;;19.38;47.23;100339.28;4770385;30;20450;-91
2021/05/21 03:35:04;;;;;;;2.95;1.00;;;;;;;19.38;47.49;100333.16;4771031;30;20059;-92
2021/05/21 03:37:29;;;;;;;3.63;1.10;;;;;;;19.38;47.20;100322.72;4756710;30;20067;-92
2021/05/21 03:39:55;;;;;;;3.35;1.08;;;;;;;19.37;47.16;100321.03;4763579;30;20072;-91
2021/05/21 03:42:20;;;;;;;3.53;1.10;;;;;;;19.37;47.43;100305.38;4789281;30;20035;-90
2021/05/21 03:44:46;;;;;;;3.63;1.15;;;;;;;19.36;47.14;100307.13;4778550;30;20036;-91
2021/05/21 03:47:11;;;;;;;4.25;1.00;;;;;;;19.37;47.16;100314.06;4775579;30;20595;-90
2021/05/21 03:49:38;;;;;;;3.70;1.05;;;;;;;19.38;47.29;100302.75;4759354;30;20078;-92
2021/05/21 03:52:03;;;;;;;2.85;1.10;;;;;;;19.39;46.83;100303.59;4759794;30;20028;-90
2021/05/21 03:54:29;;;;;;;2.38;0.90;;;;;;;19.36;47.13;100299.31;4758663;30;20043;-91
2021/05/21 03:56:54;;;;;;;3.70;1.00;;;;;;;19.39;47.12;100317.47;4773567;30;20193;-91
2021/05/21 03:59:20;;;;;;;2.58;0.88;;;;;;;19.38;46.95;100302.75;4773665;30;20430;-92
2021/05/21 04:01:49;;;;;;;2.95;0.90;;;;;;;19.37;46.89;100293.19;4774662;30;20127;-90
2021/05/21 04:04:15;;;;;;;2.17;1.00;;;;;;;19.38;47.08;100301.84;4780628;30;20070;-91
2021/05/21 04:06:41;;;;;;;3.03;1.13;;;;;;;19.36;47.33;100294.09;4779040;30;20027;-90
2021/05/21 04:09:07;;;;;;;3.00;1.20;;;;;;;19.37;47.22;100285.34;4775990;30;20515;-92
2021/05/21 04:11:37;;;;;;;3.45;1.25;;;;;;;19.34;47.24;100280.22;4776933;30;20070;-92
2021/05/21 04:14:04;;;;;;;3.65;1.30;;;;;;;19.34;47.11;100277.63;4773409;30;20046;-91
2021/05/21 04:16:30;;;;;;;2.25;1.00;;;;;;;19.35;47.25;100276.72;4773205;30;20032;-91
2021/05/21 04:18:57;;;;;;;2.85;1.30;;;;;;;19.35;47.20;100258.44;4773181;30;20150;-91
2021/05/21 04:21:22;;;;;;;2.85;1.00;;;;;;;19.37;47.28;100272.31;4773196;30;20039;-90
2021/05/21 04:23:48;;;;;;;5.05;1.20;;;;;;;19.36;47.22;100269.72;4773434;30;20043;-91
2021/05/21 04:26:39;;;;;;;3.67;1.17;;;;;;;19.35;46.85;100261.06;4773118;30;20096;-90
2021/05/21 04:29:05;;;;;;;3.97;1.20;;;;;;;19.37;47.36;100261.03;4778175;30;20039;-91
2021/05/21 04:31:30;;;;;;;4.10;1.33;;;;;;;19.36;47.09;100248.84;4781483;29;20515;-92
2021/05/21 04:33:56;;;;;;;3.20;1.20;;;;;;;19.36;47.12;100246.25;4811233;29;20080;-91
2021/05/21 04:36:22;;;;;;;3.10;1.13;;;;;;;19.35;47.24;100248.00;4794350;29;20062;-91
2021/05/21 04:38:47;;;;;;;4.72;1.27;;;;;;;19.37;47.29;100242.75;4793836;29;20026;-90
2021/05/21 04:41:13;;;;;;;3.63;1.27;;;;;;;19.37;47.20;100238.41;4778980;29;20457;-91
2021/05/21 04:43:39;;;;;;;2.95;1.10;;;;;;;19.37;47.22;100233.16;4793972;29;20510;-90
2021/05/21 04:46:06;;;;;;;4.97;1.13;;;;;;;19.39;47.35;100233.16;4793797;29;20035;-93
2021/05/21 04:48:33;;;;;;;2.63;0.88;;;;;;;19.37;47.23;100245.38;4794852;29;20033;-92
2021/05/21 04:50:58;;;;;;;3.10;1.02;;;;;;;19.38;47.42;100239.25;4794515;29;20033;-91
2021/05/21 04:53:24;;;;;;;2.10;0.88;;;;;;;19.36;47.14;100230.59;4794043;29;20035;-92
2021/05/21 04:55:53;;;;;;;2.83;0.98;;;;;;;19.36;47.09;100233.19;4794198;29;20038;-91
2021/05/21 04:58:18;;;;;;;3.38;1.20;;;;;;;19.38;47.30;100237.50;4794357;29;20030;-92
2021/05/21 05:00:47;;;;;;;2.88;1.10;;;;;;;19.35;47.25;100240.19;4795374;29;20030;-92
2021/05/21 05:03:17;;;;;;;3.83;1.23;;;;;;;19.35;46.92;100240.19;4798785;29;20031;-91
2021/05/21 05:05:45;;;;;;;3.42;1.20;;;;;;;19.33;47.09;100232.38;4797975;29;20121;-92
2021/05/21 05:08:16;;;;;;;3.00;0.88;;;;;;;19.36;47.17;100226.25;4799636;29;20050;-91
2021/05/21 05:10:43;;;;;;;2.63;1.00;;;;;;;19.34;47.08;100220.22;4795168;29;20470;-91
2021/05/21 05:13:09;;;;;;;3.20;1.00;;;;;;;19.38;47.13;100227.06;4794307;29;20031;-92
2021/05/21 05:15:36;;;;;;;3.90;1.02;;;;;;;19.39;47.00;100209.66;4794166;29;20129;-90
2021/05/21 05:18:02;;;;;;;4.25;1.10;;;;;;;19.43;47.02;100206.06;4794006;29;20047;-91
2021/05/21 05:20:28;;;;;;;2.70;1.10;;;;;;;19.53;46.87;100199.69;4778605;29;20027;-92
2021/05/21 05:22:55;;;;;;;3.20;1.10;;;;;;;19.57;46.75;100196.09;4793981;29;20115;-90
2021/05/21 05:25:21;;;;;;;3.85;1.20;;;;;;;19.62;46.67;100188.13;4793706;29;20031;-91
2021/05/21 05:27:47;;;;;;;2.70;1.00;;;;;;;19.69;46.44;100198.41;4792980;29;20027;-92
2021/05/21 05:30:14;;;;;;;3.08;0.98;;;;;;;19.67;46.23;100188.88;4792943;29;20019;-91
2021/05/21 05:32:39;;;;;;;4.95;1.35;;;;;;;19.61;46.44;100192.50;4792768;29;20130;-90
2021/05/21 05:35:06;;;;;;;2.80;0.95;;;;;;;19.60;46.66;100184.69;4777675;29;20138;-90
2021/05/21 05:37:31;;;;;;;5.05;1.20;;;;;;;19.56;46.61;100183.09;4792712;29;20107;-92
2021/05/21 05:40:00;;;;;;;3.85;0.90;;;;;;;19.55;46.64;100176.16;4792896;29;20034;-91
2021/05/21 05:42:28;;;;;;;3.25;1.08;;;;;;;19.53;46.72;100174.47;4777529;29;20122;-90
2021/05/21 05:44:53;;;;;;;2.40;0.80;;;;;;;19.49;46.85;100172.84;4777420;29;20062;-90
2021/05/21 05:47:19;;;;;;;3.30;1.10;;;;;;;19.50;46.81;100171.94;4777484;29;20062;-89
2021/05/21 05:49:44;;;;;;;3.10;1.00;;;;;;;19.51;46.87;100173.66;4792223;29;20585;-89
2021/05/21 05:52:10;;;;;;;2.20;0.88;;;;;;;19.49;46.74;100175.44;4792478;29;20096;-90
2021/05/21 05:54:36;;;;;;;2.28;0.85;;;;;;;19.48;46.81;100163.28;4791654;29;20081;-90
2021/05/21 05:57:01;;;;;;;3.15;1.17;;;;;;;19.47;46.76;100168.56;4794134;29;20023;-90
2021/05/21 05:59:28;;;;;;;3.05;1.15;;;;;;;19.47;46.77;100172.03;5134430;24;20734;-89
2021/05/21 06:01:54;;;;;;;4.00;1.17;;;;;;;19.46;46.93;100166.84;4771392;30;20032;-89
2021/05/21 06:04:19;;;;;;;3.05;0.90;;;;;;;19.47;46.88;100164.19;4772352;30;20093;-90
2021/05/21 06:06:47;;;;;;;3.17;1.08;;;;;;;19.47;46.64;100161.59;4772014;30;20032;-91
2021/05/21 06:09:12;;;;;;;3.72;1.13;;;;;;;19.45;46.80;100155.56;4773783;30;20032;-90
2021/05/21 06:11:38;;;;;;;2.47;1.10;;;;;;;19.48;46.91;100154.59;4781195;30;20035;-93
2021/05/21 06:14:04;;;;;;;2.83;1.17;;;;;;;19.44;47.01;100159.03;4760783;30;20039;-90
2021/05/21 06:16:29;;;;;;;4.60;1.20;;;;;;;19.45;46.84;100155.56;4774217;30;20039;-90
2021/05/21 06:18:55;;;;;;;2.55;0.90;;;;;;;19.45;46.72;100149.47;4772632;30;20035;-90
2021/05/21 06:21:20;;;;;;;4.22;1.27;;;;;;;19.46;46.87;100156.41;4772915;30;20066;-90
2021/05/21 06:23:46;;;;;;;3.60;1.20;;;;;;;19.45;46.70;100152.09;4758034;30;20103;-90
2021/05/21 06:28:40;;;;;;;3.25;1.10;;;;;;;19.44;47.01;100143.38;4778061;30;20019;-89
2021/05/21 06:31:06;;;;;;;2.83;1.00;;;;;;;19.47;46.94;100150.31;4768684;30;20150;-90
2021/05/21 06:33:31;;;;;;;3.90;1.05;;;;;;;19.45;46.88;100160.78;4779974;30;20074;-88
2021/05/21 06:35:57;;;;;;;3.47;1.20;;;;;;;19.44;47.00;100161.66;4783406;30;20165;-90
2021/05/21 06:38:23;;;;;;;2.75;1.05;;;;;;;19.45;46.98;100157.31;4783138;30;20062;-90
2021/05/21 06:40:48;;;;;;;3.90;1.10;;;;;;;19.45;46.75;100152.94;4778671;30;20480;-89
2021/05/21 06:43:14;;;;;;;3.47;1.20;;;;;;;19.43;46.80;100143.44;4766578;30;20384;-91
2021/05/21 06:45:40;;;;;;;3.22;1.27;;;;;;;19.44;47.22;100156.44;4772218;30;20040;-89
2021/05/21 06:48:06;;;;;;;4.25;1.23;;;;;;;19.43;47.07;100149.53;4787607;30;20027;-89
2021/05/21 06:50:32;;;;;;;2.47;0.90;;;;;;;19.43;46.91;100140.84;4789856;30;20036;-90
2021/05/21 06:52:58;;;;;;;3.90;1.00;;;;;;;19.45;46.84;100152.94;4766650;30;20044;-89
2021/05/21 06:55:24;;;;;;;3.83;1.40;;;;;;;19.42;46.92;100147.78;4780482;30;20056;-90
2021/05/21 06:57:49;;;;;;;3.65;1.00;;;;;;;19.47;46.79;100155.50;4777998;30;20043;-88
2021/05/21 07:00:15;;;;;;;4.32;1.40;;;;;;;19.46;46.94;100145.97;4777563;30;20051;-90
2021/05/21 07:02:41;;;;;;;2.95;1.30;;;;;;;19.45;46.91;100152.94;4772476;30;20044;-88
2021/05/21 07:05:08;;;;;;;4.85;1.20;;;;;;;19.43;46.80;100141.69;4744583;30;20036;-89
2021/05/21 07:07:33;;;;;;;3.85;1.30;;;;;;;19.43;46.97;100159.97;4773735;30;20063;-89
2021/05/21 07:09:59;;;;;;;3.78;1.30;;;;;;;19.44;46.95;100135.56;4773059;30;20031;-90
2021/05/21 07:12:25;;;;;;;2.85;1.13;;;;;;;19.43;47.01;100131.25;4773358;30;20032;-90
2021/05/21 07:17:16;;;;;;;4.00;1.13;;;;;;;19.45;47.09;100139.91;4787227;24;20071;-89
2021/05/21 07:19:41;;;;;;;3.97;1.15;;;;;;;19.47;46.99;100147.69;4761236;30;20032;-89
2021/05/21 07:22:08;;;;;;;3.20;1.10;;;;;;;19.46;46.68;100141.59;4763230;30;20066;-89
2021/05/21 07:24:34;;;;;;;3.75;1.25;;;;;;;19.46;46.77;100144.19;4762796;30;20031;-90
2021/05/21 07:26:59;;;;;;;2.55;1.10;;;;;;;19.46;47.09;100138.97;4762719;30;20049;-90
2021/05/21 07:29:25;;;;;;;3.95;1.23;;;;;;;19.53;46.88;100143.16;4762865;30;20031;-90
2021/05/21 07:31:50;;;;;;;4.28;1.30;;;;;;;19.51;46.83;100147.56;4762757;30;20492;-90
2021/05/21 07:34:16;;;;;;;3.53;1.25;;;;;;;19.58;46.79;100136.94;4766790;30;20059;-90
2021/05/21 07:36:41;;;;;;;3.67;1.25;;;;;;;19.61;46.49;100139.44;4768978;30;20102;-92
2021/05/21 07:39:07;;;;;;;4.70;1.40;;;;;;;19.62;46.66;100141.16;4740317;30;20028;-90
2021/05/21 07:41:33;;;;;;;4.78;1.55;;;;;;;19.64;46.46;100141.97;4751326;30;20042;-92
2021/05/21 07:43:59;;;;;;;3.17;0.98;;;;;;;19.60;46.53;100136.00;4762173;30;20032;-90
2021/05/21 07:46:26;;;;;;;2.53;1.15;;;;;;;19.58;46.53;100127.34;4748348;30;20035;-90
2021/05/21 07:48:52;;;;;;;3.42;1.17;;;;;;;19.61;46.85;100142.06;4762806;30;20122;-90
2021/05/21 07:51:19;;;;;;;4.63;1.25;;;;;;;19.61;46.66;100139.44;4761396;30;20031;-91
2021/05/21 07:53:45;;;;;;;3.45;1.20;;;;;;;19.62;46.49;100142.03;4760901;30;20038;-91
2021/05/21 07:56:10;;;;;;;3.78;1.20;;;;;;;19.60;46.46;100129.91;4778036;30;20060;-91
2021/05/21 07:58:36;;;;;;;2.72;1.25;;;;;;;19.63;46.55;100141.13;4761775;30;20024;-92
2021/05/21 08:01:03;;;;;;;6.00;1.25;;;;;;;19.61;46.59;100129.84;4761150;30;20060;-91
2021/05/21 08:03:28;;;;;;;4.00;1.15;;;;;;;19.59;46.62;100126.44;4781199;30;20039;-90
2021/05/21 08:05:57;;;;;;;5.68;1.15;;;;;;;19.58;46.64;100135.19;4766089;30;20032;-90
2021/05/21 08:08:22;;;;;;;4.55;1.45;;;;;;;19.58;46.48;100132.56;4767252;30;20180;-90
2021/05/21 08:10:54;;;;;;;5.18;1.52;;;;;;;19.58;46.57;100129.13;4754895;30;20031;-90
2021/05/21 08:13:19;;;;;;;4.13;1.40;;;;;;;19.60;46.61;100135.13;4753298;30;20032;-91
2021/05/21 08:15:45;;;;;;;4.88;1.58;;;;;;;19.60;46.46;100153.38;4761696;30;20055;-90
2021/05/21 08:18:11;;;;;;;4.60;1.40;;;;;;;19.57;46.62;100130.00;4774151;30;20040;-89
2021/05/21 08:20:38;;;;;;;6.13;1.35;;;;;;;19.57;46.50;100130.84;4766626;30;20388;-91
2021/05/21 08:23:04;;;;;;;3.22;1.20;;;;;;;19.58;46.67;100135.19;4763826;30;20118;-92
2021/05/21 08:32:15;;;;;;;6.90;1.67;;;;;;;19.67;46.34;100114.03;4769263;30;20146;-90
2021/05/21 08:34:40;;;;;;;4.47;1.30;;;;;;;19.71;46.18;100113.06;4761850;30;20120;-91
2021/05/21 08:37:06;;;;;;;3.75;1.30;;;;;;;19.68;46.43;100117.47;4760821;30;20122;-91
2021/05/21 08:39:36;;;;;;;5.55;1.48;;;;;;;19.67;46.38;100108.81;4745167;30;20101;-92
2021/05/21 08:42:02;;;;;;;3.28;1.40;;;;;;;19.71;46.38;100107.00;4759860;30;20038;-92
2021/05/21 08:44:32;;;;;;;2.90;1.25;;;;;;;19.70;46.33;100111.34;4760040;30;20028;-91
2021/05/21 08:47:00;;;;;;;2.97;1.20;;;;;;;19.68;46.15;100109.66;4760186;30;20028;-90
2021/05/21 08:49:31;;;;;;;4.65;1.20;;;;;;;19.65;46.48;100113.22;4758749;30;20122;-92
2021/05/21 08:52:00;;;;;;;3.58;1.33;;;;;;;19.66;46.36;100119.28;4747814;30;20040;-90
2021/05/21 08:54:34;;;;;;;3.40;1.50;;;;;;;19.65;46.34;100115.81;4767449;30;20061;-92
2021/05/21 08:57:03;;;;;;;3.38;1.20;;;;;;;19.66;46.55;100114.06;4762627;30;20028;-92
2021/05/21 08:59:29;;;;;;;3.33;1.10;;;;;;;19.66;46.43;100114.06;4763798;30;20031;-91
2021/05/21 09:01:58;;;;;;;4.32;1.40;;;;;;;19.69;46.48;100119.22;4733909;30;20484;-92
2021/05/21 09:04:44;;;;;;;5.25;1.50;;;;;;;19.69;46.31;100119.22;4763020;30;20056;-91
2021/05/21 09:07:18;;;;;;;3.25;1.30;;;;;;;19.68;46.56;100134.00;4763168;30;20024;-90
2021/05/21 09:09:44;;;;;;;4.70;1.30;;;;;;;19.69;46.39;100137.47;4766951;30;20036;-91
2021/05/21 09:12:10;;;;;;;4.97;1.50;;;;;;;19.67;46.41;100136.66;4769222;30;20031;-90
2021/05/21 09:14:35;;;;;;;2.88;1.20;;;;;;;19.69;46.37;100125.31;4768189;30;20504;-91
2021/05/21 09:17:01;;;;;;;4.18;1.33;;;;;;;19.68;46.30;100126.16;4791844;30;20054;-90
2021/05/21 09:19:28;;;;;;;3.75;1.50;;;;;;;19.76;46.10;100128.59;4806934;30;20105;-90
2021/05/21 09:21:53;;;;;;;3.17;1.27;;;;;;;19.83;46.08;100124.03;4804363;24;20525;-91
2021/05/21 09:24:36;;;;;;;3.53;1.30;;;;;;;19.88;46.00;100117.78;4795302;30;20054;-89
2021/05/21 09:27:04;;;;;;;5.38;1.23;;;;;;;19.90;46.05;100126.44;4792313;30;20061;-92
2021/05/21 09:29:46;;;;;;;3.92;1.30;;;;;;;19.86;46.11;100114.38;4796836;29;20036;-91
2021/05/21 09:32:18;;;;;;;2.38;1.00;;;;;;;19.83;46.29;100109.22;4797623;30;20059;-91
2021/05/21 09:34:48;;;;;;;3.40;1.10;;;;;;;19.81;46.39;100129.31;4796861;30;20042;-90
2021/05/21 09:37:22;;;;;;;3.92;1.20;;;;;;;19.80;46.19;100121.53;4796842;30;20038;-91
2021/05/21 09:40:00;;;;;;;3.50;1.30;;;;;;;19.84;46.14;100115.31;4792663;30;20038;-91
2021/05/21 09:42:26;;;;;;;3.22;1.20;;;;;;;19.79;46.28;100118.03;4793924;30;20107;-92
2021/05/21 09:44:52;;;;;;;4.13;1.30;;;;;;;19.76;46.42;100110.31;4794429;30;20077;-91
2021/05/21 09:47:17;;;;;;;4.50;1.30;;;;;;;19.76;46.56;100119.91;4793113;30;20027;-91
2021/05/21 09:49:42;;;;;;;3.50;1.35;;;;;;;19.73;46.17;100110.41;4777806;30;20440;-91
2021/05/21 09:52:10;;;;;;;5.05;1.45;;;;;;;19.77;46.16;100101.56;4793526;30;20046;-92
2021/05/21 09:55:06;;;;;;;4.60;1.50;;;;;;;19.78;46.16;100100.69;4792897;30;20048;-91
2021/05/21 09:57:36;;;;;;;3.13;1.15;;;;;;;19.76;46.35;100102.47;4778260;30;20177;-92
2021/05/21 10:00:08;;;;;;;4.35;1.23;;;;;;;19.73;46.26;100126.09;4792590;30;20506;-91
2021/05/21 10:02:34;;;;;;;3.78;1.67;;;;;;;19.71;46.24;100127.88;4794619;30;20063;-90
2021/05/21 10:05:02;;;;;;;3.40;1.33;;;;;;;19.72;46.42;100124.34;4792997;30;20034;-92
2021/05/21 10:07:28;;;;;;;3.97;1.40;;;;;;;19.75;46.20;100112.97;4791819;29;20035;-92
2021/05/21 10:09:56;;;;;;;3.95;1.30;;;;;;;19.79;46.11;100123.25;4778414;30;20100;-91
2021/05/21 10:12:21;;;;;;;4.05;1.42;;;;;;;19.82;46.41;100117.13;4792377;29;20118;-94
2021/05/21 10:14:50;;;;;;;5.03;1.33;;;;;;;19.82;46.43;100128.41;4792699;30;20456;-91
2021/05/21 10:17:21;;;;;;;3.25;1.33;;;;;;;19.78;46.39;100108.50;4777379;30;20034;-91
2021/05/21 10:19:48;;;;;;;5.28;1.52;;;;;;;19.79;46.27;100106.75;4792540;30;20035;-93
2021/05/21 10:22:21;;;;;;;4.32;1.50;;;;;;;19.78;46.34;100103.28;4792797;29;20062;-90
2021/05/21 10:24:47;;;;;;;3.65;1.30;;;;;;;19.80;46.40;100106.72;4778562;30;20143;-91
2021/05/21 10:27:21;;;;;;;3.45;1.20;;;;;;;19.79;46.35;100098.91;4762358;30;20396;-89
2021/05/21 10:29:56;;;;;;;3.88;1.30;;;;;;;19.81;46.37;100103.19;4779217;30;20039;-90
2021/05/21 10:32:28;;;;;;;5.32;1.52;;;;;;;19.78;46.43;100098.06;4777325;30;20031;-91
2021/05/21 10:34:58;;;;;;;3.30;1.10;;;;;;;19.81;46.42;100102.34;4777087;30;20035;-91
2021/05/21 10:37:29;;;;;;;4.63;1.40;;;;;;;19.83;46.46;100100.53;4777835;30;20032;-91
2021/05/21 10:40:01;;;;;;;5.05;1.40;;;;;;;19.81;46.48;100102.34;4776536;30;20081;-90
2021/05/21 10:42:27;;;;;;;3.63;1.20;;;;;;;19.82;46.47;100114.50;4776613;30;20071;-90
2021/05/21 10:45:07;;;;;;;4.22;1.50;;;;;;;19.78;46.46;100108.50;4776662;30;20034;-91
2021/05/21 10:47:37;;;;;;;4.13;1.33;;;;;;;19.80;46.19;100106.72;4776056;30;20130;-91
2021/05/21 10:50:03;;;;;;;4.13;1.40;;;;;;;19.84;46.52;100097.03;4776806;30;20031;-92
2021/05/21 10:52:47;;;;;;;4.90;1.50;;;;;;;19.81;46.33;100108.41;4777015;30;20050;-92
2021/05/21 10:55:12;;;;;;;4.25;1.33;;;;;;;19.78;46.41;100103.28;4776532;30;20399;-91
2021/05/21 10:57:42;;;;;;;2.50;1.13;;;;;;;19.79;46.33;100099.78;4776259;30;20023;-90
2021/05/21 11:00:31;;;;;;;3.63;1.25;;;;;;;19.78;46.28;100113.75;4776600;30;20159;-91
2021/05/21 11:03:00;;;;;;;4.03;1.50;;;;;;;19.76;46.26;100089.44;4776627;30;20125;-91
2021/05/21 11:05:37;;;;;;;4.72;1.45;;;;;;;19.80;46.21;100088.44;4776512;30;20042;-91
2021/05/21 11:08:07;;;;;;;3.42;1.35;;;;;;;19.80;46.29;100087.59;4775761;30;20037;-92
2021/05/21 11:10:39;;;;;;;5.03;1.38;;;;;;;19.81;46.20;100087.53;4775462;30;20043;-92
2021/05/21 11:13:13;;;;;;;4.55;1.30;;;;;;;19.81;46.18;100105.81;4775512;30;20485;-91
2021/05/21 11:16:00;;;;;;;4.43;1.52;;;;;;;19.80;46.11;100088.44;4776023;30;20441;-92
2021/05/21 11:18:30;;;;;;;5.05;1.50;;;;;;;19.79;46.26;100091.09;4776365;30;20047;-90
2021/05/21 11:21:15;;;;;;;4.25;1.30;;;;;;;19.82;46.39;100094.47;4763706;30;20463;-91
2021/05/21 11:23:48;;;;;;;5.70;1.60;;;;;;;19.83;46.27;100118.81;4779664;30;20055;-90
2021/05/21 11:26:13;;;;;;;2.93;1.40;;;;;;;19.83;46.40;100113.59;4780823;30;20047;-92
2021/05/21 11:28:48;;;;;;;4.05;1.20;;;;;;;19.80;46.56;100104.09;4780098;30;20039;-92
2021/05/21 11:31:16;;;;;;;5.63;1.42;;;;;;;19.79;46.45;100091.94;4782540;30;20032;-91
2021/05/21 11:33:47;;;;;;;3.03;1.15;;;;;;;19.83;46.44;100097.94;4790285;30;20045;-91
2021/05/21 11:36:13;;;;;;;4.38;1.35;;;;;;;19.81;46.54;100102.34;4788862;30;20042;-91